Карточка аэропорта URKA

Внимание!
Информация на этой странице в стадии наполнения.
Если вы не увидели какой-то информации, или заметили неточность - пожалуйста сообщите нам!
Спасибо!
Команда RU-STAFF
Название аэропортаВитязево
Название аэропорта (англ.)Vityazevo
Превышение176 ft. (53.6 m.)
Координаты45°0.13200000000012', 37°20.832'
Высота перехода4000 ft
Эшелон переходаFL50 (QNH >= 1013); FL60 (QNH 977-1012); FL70 (QNH < 977)
Коды ответчика1040-1047
Зона ОрВДРостов-на-Дону РПИ (URRV)
Данные METARURKA 290230Z 19004MPS 9000 -SHRA SCT005 SCT///CB 17/17 Q1010 R03/010070 TEMPO 1000 TSRA SCT004 BKN016CB RMK QFE753/1005
Проноз погоды (TAF)URKA 290144Z 2903/3003 19003G08MPS 6000 -SHRA BKN020CB TEMPO 2903/2915 24007G14MPS 1000 TSRAGR SCT005 BKN016CB BECMG 2915/2917 9999 NSW SCT030CB
NOTAMshow/hide NOTAM
AWOS   TABLE

Информация о ВПП

ВПП Длина ВПП (м.) Покрытие Курс ВПП Частота ILS
222500Цементобетон216 
042500Цементобетон36109.1

Диспетчерские позиции

Позывной Наименование органа УВД Частота
URKAFM1119,0
URKA_GNDАнапа-Руление119.0
URKA_R_APPАнапа-Круг118.7
URKA_TWRАнапа-Старт119.8



Спутниковое изображение